sensor_id;sensor_type;location;lat;lon;timestamp;temperature;humidity
20773;DHT22;10546;50.674;4.616;2022-08-21T07:49:15;27.80;99.90
20773;DHT22;10546;50.674;4.616;2022-08-21T07:51:41;28.00;99.90
20773;DHT22;10546;50.674;4.616;2022-08-21T07:54:07;28.00;99.90
20773;DHT22;10546;50.674;4.616;2022-08-21T07:56:33;28.00;99.90
20773;DHT22;10546;50.674;4.616;2022-08-21T07:58:59;28.40;99.90
20773;DHT22;10546;50.674;4.616;2022-08-21T08:01:25;29.40;99.60
20773;DHT22;10546;50.674;4.616;2022-08-21T08:03:54;30.10;98.80
20773;DHT22;10546;50.674;4.616;2022-08-21T08:06:23;31.20;97.30
20773;DHT22;10546;50.674;4.616;2022-08-21T08:08:49;31.00;96.20
20773;DHT22;10546;50.674;4.616;2022-08-21T08:11:15;31.00;96.10
20773;DHT22;10546;50.674;4.616;2022-08-21T08:13:49;30.40;96.30
20773;DHT22;10546;50.674;4.616;2022-08-21T08:16:23;29.50;96.50
20773;DHT22;10546;50.674;4.616;2022-08-21T08:18:49;28.80;97.90
20773;DHT22;10546;50.674;4.616;2022-08-21T08:21:15;27.80;98.50
20773;DHT22;10546;50.674;4.616;2022-08-21T08:23:42;28.00;99.40
20773;DHT22;10546;50.674;4.616;2022-08-21T08:26:10;28.20;98.90
20773;DHT22;10546;50.674;4.616;2022-08-21T08:28:37;28.20;98.60
20773;DHT22;10546;50.674;4.616;2022-08-21T08:31:03;28.50;98.50
20773;DHT22;10546;50.674;4.616;2022-08-21T08:33:35;27.90;98.90
20773;DHT22;10546;50.674;4.616;2022-08-21T08:36:03;27.10;99.90
20773;DHT22;10546;50.674;4.616;2022-08-21T08:38:29;27.60;99.90
20773;DHT22;10546;50.674;4.616;2022-08-21T08:43:40;27.40;99.60
20773;DHT22;10546;50.674;4.616;2022-08-21T08:46:14;27.40;99.90
20773;DHT22;10546;50.674;4.616;2022-08-21T08:48:51;27.20;99.90
20773;DHT22;10546;50.674;4.616;2022-08-21T08:51:37;27.00;99.90
20773;DHT22;10546;50.674;4.616;2022-08-21T08:54:19;27.70;99.90
20773;DHT22;10546;50.674;4.616;2022-08-21T08:57:01;28.80;99.50
20773;DHT22;10546;50.674;4.616;2022-08-21T09:00:07;28.90;98.60
20773;DHT22;10546;50.674;4.616;2022-08-21T09:02:25;29.10;98.00
20773;DHT22;10546;50.674;4.616;2022-08-21T09:04:55;28.80;97.40
20773;DHT22;10546;50.674;4.616;2022-08-21T09:07:40;28.50;97.60
20773;DHT22;10546;50.674;4.616;2022-08-21T09:10:37;28.10;98.60
20773;DHT22;10546;50.674;4.616;2022-08-21T09:17:02;27.80;99.10
20773;DHT22;10546;50.674;4.616;2022-08-21T09:22:57;28.70;97.50
20773;DHT22;10546;50.674;4.616;2022-08-21T09:25:32;29.30;96.80
20773;DHT22;10546;50.674;4.616;2022-08-21T09:27:58;29.80;95.90
20773;DHT22;10546;50.674;4.616;2022-08-21T09:30:30;29.80;95.30
20773;DHT22;10546;50.674;4.616;2022-08-21T09:32:56;30.10;95.50
20773;DHT22;10546;50.674;4.616;2022-08-21T09:35:24;29.90;94.70
20773;DHT22;10546;50.674;4.616;2022-08-21T09:43:02;30.90;93.80
20773;DHT22;10546;50.674;4.616;2022-08-21T09:45:29;30.70;93.70
20773;DHT22;10546;50.674;4.616;2022-08-21T09:47:56;31.40;93.30
20773;DHT22;10546;50.674;4.616;2022-08-21T09:50:26;31.60;92.70
20773;DHT22;10546;50.674;4.616;2022-08-21T09:52:55;31.90;92.10
20773;DHT22;10546;50.674;4.616;2022-08-21T09:58:12;30.00;92.80
20773;DHT22;10546;50.674;4.616;2022-08-21T10:00:38;29.70;93.50
20773;DHT22;10546;50.674;4.616;2022-08-21T10:03:17;29.50;94.00
20773;DHT22;10546;50.674;4.616;2022-08-21T10:06:19;28.50;95.00
20773;DHT22;10546;50.674;4.616;2022-08-21T10:08:45;28.50;95.70
20773;DHT22;10546;50.674;4.616;2022-08-21T10:11:16;29.00;95.50
20773;DHT22;10546;50.674;4.616;2022-08-21T10:24:45;31.30;91.60
20773;DHT22;10546;50.674;4.616;2022-08-21T10:27:28;30.90;91.70
20773;DHT22;10546;50.674;4.616;2022-08-21T10:35:24;32.40;90.30
20773;DHT22;10546;50.674;4.616;2022-08-21T10:38:24;32.40;89.50
20773;DHT22;10546;50.674;4.616;2022-08-21T10:52:09;31.50;90.20
20773;DHT22;10546;50.674;4.616;2022-08-21T10:54:52;31.90;89.70
20773;DHT22;10546;50.674;4.616;2022-08-21T11:00:06;32.00;89.20
20773;DHT22;10546;50.674;4.616;2022-08-21T11:02:55;32.10;89.10
20773;DHT22;10546;50.674;4.616;2022-08-21T11:08:26;31.70;89.20
20773;DHT22;10546;50.674;4.616;2022-08-21T11:13:57;31.50;88.60
20773;DHT22;10546;50.674;4.616;2022-08-21T11:16:48;30.80;89.00
20773;DHT22;10546;50.674;4.616;2022-08-21T11:19:25;30.00;90.30
20773;DHT22;10546;50.674;4.616;2022-08-21T11:21:59;30.60;90.30
20773;DHT22;10546;50.674;4.616;2022-08-21T11:27:28;30.70;90.50
20773;DHT22;10546;50.674;4.616;2022-08-21T11:29:59;30.10;90.00
20773;DHT22;10546;50.674;4.616;2022-08-21T11:54:43;27.10;93.60
20773;DHT22;10546;50.674;4.616;2022-08-21T12:02:35;28.10;93.40
20773;DHT22;10546;50.674;4.616;2022-08-21T12:05:08;28.30;93.00
20773;DHT22;10546;50.674;4.616;2022-08-21T12:07:40;28.40;93.20
20773;DHT22;10546;50.674;4.616;2022-08-21T12:10:14;28.30;92.70
20773;DHT22;10546;50.674;4.616;2022-08-21T12:12:42;28.20;93.40
20773;DHT22;10546;50.674;4.616;2022-08-21T12:20:38;28.70;91.70
20773;DHT22;10546;50.674;4.616;2022-08-21T12:26:22;28.00;92.60
20773;DHT22;10546;50.674;4.616;2022-08-21T12:28:49;28.50;92.10
20773;DHT22;10546;50.674;4.616;2022-08-21T12:31:25;28.60;91.30
20773;DHT22;10546;50.674;4.616;2022-08-21T12:33:55;28.70;91.20
20773;DHT22;10546;50.674;4.616;2022-08-21T12:36:25;28.80;91.60
20773;DHT22;10546;50.674;4.616;2022-08-21T12:39:03;28.60;91.20
20773;DHT22;10546;50.674;4.616;2022-08-21T12:41:34;28.60;91.40
20773;DHT22;10546;50.674;4.616;2022-08-21T12:44:14;28.30;91.80
20773;DHT22;10546;50.674;4.616;2022-08-21T12:46:48;28.40;91.70
20773;DHT22;10546;50.674;4.616;2022-08-21T12:49:19;28.30;91.50
20773;DHT22;10546;50.674;4.616;2022-08-21T12:52:06;28.40;91.30
20773;DHT22;10546;50.674;4.616;2022-08-21T12:54:39;28.20;90.50
20773;DHT22;10546;50.674;4.616;2022-08-21T12:57:06;28.10;90.20
20773;DHT22;10546;50.674;4.616;2022-08-21T12:59:36;27.90;90.80
20773;DHT22;10546;50.674;4.616;2022-08-21T13:02:14;27.60;91.00
20773;DHT22;10546;50.674;4.616;2022-08-21T13:04:41;27.30;91.40
20773;DHT22;10546;50.674;4.616;2022-08-21T13:07:12;27.40;92.00
20773;DHT22;10546;50.674;4.616;2022-08-21T13:09:47;27.50;92.60
20773;DHT22;10546;50.674;4.616;2022-08-21T13:12:15;27.70;92.10
20773;DHT22;10546;50.674;4.616;2022-08-21T13:14:43;27.70;92.10
20773;DHT22;10546;50.674;4.616;2022-08-21T13:17:10;27.70;92.40
20773;DHT22;10546;50.674;4.616;2022-08-21T13:19:36;27.10;93.10
20773;DHT22;10546;50.674;4.616;2022-08-21T13:22:03;27.00;93.60
20773;DHT22;10546;50.674;4.616;2022-08-21T13:24:34;26.80;93.40
20773;DHT22;10546;50.674;4.616;2022-08-21T13:27:19;26.80;94.20
20773;DHT22;10546;50.674;4.616;2022-08-21T13:29:45;27.20;93.50
20773;DHT22;10546;50.674;4.616;2022-08-21T13:32:20;27.20;93.50
20773;DHT22;10546;50.674;4.616;2022-08-21T13:34:46;27.30;93.80
20773;DHT22;10546;50.674;4.616;2022-08-21T13:37:13;27.40;93.20
20773;DHT22;10546;50.674;4.616;2022-08-21T13:39:39;27.10;92.80
20773;DHT22;10546;50.674;4.616;2022-08-21T13:42:11;27.10;92.60
20773;DHT22;10546;50.674;4.616;2022-08-21T13:44:44;27.30;93.50
20773;DHT22;10546;50.674;4.616;2022-08-21T13:47:12;27.30;92.60
20773;DHT22;10546;50.674;4.616;2022-08-21T13:49:42;27.70;93.20
20773;DHT22;10546;50.674;4.616;2022-08-21T13:52:20;27.40;92.90
20773;DHT22;10546;50.674;4.616;2022-08-21T13:57:29;27.30;93.00
20773;DHT22;10546;50.674;4.616;2022-08-21T14:02:45;27.70;92.90
20773;DHT22;10546;50.674;4.616;2022-08-21T14:05:19;27.90;92.30
20773;DHT22;10546;50.674;4.616;2022-08-21T14:07:46;27.60;92.30
20773;DHT22;10546;50.674;4.616;2022-08-21T14:10:18;27.80;92.30
20773;DHT22;10546;50.674;4.616;2022-08-21T14:12:54;27.70;92.00
20773;DHT22;10546;50.674;4.616;2022-08-21T14:15:26;27.40;92.10
20773;DHT22;10546;50.674;4.616;2022-08-21T14:17:54;27.40;92.90
20773;DHT22;10546;50.674;4.616;2022-08-21T14:20:35;27.50;92.30
20773;DHT22;10546;50.674;4.616;2022-08-21T14:23:02;27.80;92.10
20773;DHT22;10546;50.674;4.616;2022-08-21T14:25:41;27.70;92.10
20773;DHT22;10546;50.674;4.616;2022-08-21T14:28:27;27.70;92.00
20773;DHT22;10546;50.674;4.616;2022-08-21T14:30:55;27.80;91.80
20773;DHT22;10546;50.674;4.616;2022-08-21T14:33:31;27.70;91.40
20773;DHT22;10546;50.674;4.616;2022-08-21T14:35:58;27.90;91.70
20773;DHT22;10546;50.674;4.616;2022-08-21T14:38:25;27.70;92.40
20773;DHT22;10546;50.674;4.616;2022-08-21T14:40:54;27.60;92.70
20773;DHT22;10546;50.674;4.616;2022-08-21T14:43:21;27.60;92.40
20773;DHT22;10546;50.674;4.616;2022-08-21T14:45:47;27.30;93.00
20773;DHT22;10546;50.674;4.616;2022-08-21T14:48:13;27.10;93.30
20773;DHT22;10546;50.674;4.616;2022-08-21T14:50:39;27.00;93.30
20773;DHT22;10546;50.674;4.616;2022-08-21T14:53:05;26.90;93.60
20773;DHT22;10546;50.674;4.616;2022-08-21T14:55:32;26.90;93.70
20773;DHT22;10546;50.674;4.616;2022-08-21T14:58:20;27.30;92.90
20773;DHT22;10546;50.674;4.616;2022-08-21T15:00:49;26.90;92.80
20773;DHT22;10546;50.674;4.616;2022-08-21T15:03:15;26.80;93.30
20773;DHT22;10546;50.674;4.616;2022-08-21T15:05:40;27.00;93.20
20773;DHT22;10546;50.674;4.616;2022-08-21T15:08:06;26.80;93.30
20773;DHT22;10546;50.674;4.616;2022-08-21T15:10:34;26.60;93.40
20773;DHT22;10546;50.674;4.616;2022-08-21T15:13:01;26.30;93.80
20773;DHT22;10546;50.674;4.616;2022-08-21T15:15:40;26.20;94.40
20773;DHT22;10546;50.674;4.616;2022-08-21T15:18:06;26.00;94.70
20773;DHT22;10546;50.674;4.616;2022-08-21T15:20:32;26.10;94.40
20773;DHT22;10546;50.674;4.616;2022-08-21T15:22:58;26.20;94.30
20773;DHT22;10546;50.674;4.616;2022-08-21T15:25:24;26.10;94.60
20773;DHT22;10546;50.674;4.616;2022-08-21T15:27:50;26.20;94.90
20773;DHT22;10546;50.674;4.616;2022-08-21T15:30:15;26.10;95.10
20773;DHT22;10546;50.674;4.616;2022-08-21T15:32:41;26.10;94.70
20773;DHT22;10546;50.674;4.616;2022-08-21T15:35:08;26.10;94.40
20773;DHT22;10546;50.674;4.616;2022-08-21T15:37:34;26.30;94.10
20773;DHT22;10546;50.674;4.616;2022-08-21T15:40:00;26.50;93.50
20773;DHT22;10546;50.674;4.616;2022-08-21T15:42:26;26.50;93.70
20773;DHT22;10546;50.674;4.616;2022-08-21T15:44:54;26.30;93.70
20773;DHT22;10546;50.674;4.616;2022-08-21T15:47:29;26.40;94.10
20773;DHT22;10546;50.674;4.616;2022-08-21T15:49:55;26.50;93.40
20773;DHT22;10546;50.674;4.616;2022-08-21T15:52:22;26.60;93.20
20773;DHT22;10546;50.674;4.616;2022-08-21T15:54:48;26.50;93.30
20773;DHT22;10546;50.674;4.616;2022-08-21T15:57:17;26.40;93.60
20773;DHT22;10546;50.674;4.616;2022-08-21T15:59:45;26.30;93.60
20773;DHT22;10546;50.674;4.616;2022-08-21T16:02:27;26.10;93.80
20773;DHT22;10546;50.674;4.616;2022-08-21T16:04:54;25.90;94.30
20773;DHT22;10546;50.674;4.616;2022-08-21T16:07:20;25.80;94.20
20773;DHT22;10546;50.674;4.616;2022-08-21T16:09:46;25.80;94.90
20773;DHT22;10546;50.674;4.616;2022-08-21T16:12:28;25.80;94.80
20773;DHT22;10546;50.674;4.616;2022-08-21T16:14:57;25.80;94.60
20773;DHT22;10546;50.674;4.616;2022-08-21T16:17:32;25.90;94.00
20773;DHT22;10546;50.674;4.616;2022-08-21T16:20:00;26.00;93.70
20773;DHT22;10546;50.674;4.616;2022-08-21T16:22:26;25.80;94.10
20773;DHT22;10546;50.674;4.616;2022-08-21T16:24:52;25.80;94.20
20773;DHT22;10546;50.674;4.616;2022-08-21T16:27:18;26.00;94.20
20773;DHT22;10546;50.674;4.616;2022-08-21T16:29:44;25.90;93.80
20773;DHT22;10546;50.674;4.616;2022-08-21T16:32:11;25.80;94.10
20773;DHT22;10546;50.674;4.616;2022-08-21T16:34:39;25.60;94.70
20773;DHT22;10546;50.674;4.616;2022-08-21T16:37:06;25.50;94.50
20773;DHT22;10546;50.674;4.616;2022-08-21T16:39:32;25.40;94.60
20773;DHT22;10546;50.674;4.616;2022-08-21T16:41:57;25.40;95.40
20773;DHT22;10546;50.674;4.616;2022-08-21T16:44:23;25.60;94.40
20773;DHT22;10546;50.674;4.616;2022-08-21T16:46:49;25.70;93.70
20773;DHT22;10546;50.674;4.616;2022-08-21T16:49:15;25.70;93.90
20773;DHT22;10546;50.674;4.616;2022-08-21T16:51:40;25.60;94.00
20773;DHT22;10546;50.674;4.616;2022-08-21T16:54:08;25.60;94.00
20773;DHT22;10546;50.674;4.616;2022-08-21T16:56:33;25.50;94.40
20773;DHT22;10546;50.674;4.616;2022-08-21T16:58:59;25.40;94.70
20773;DHT22;10546;50.674;4.616;2022-08-21T17:01:28;25.30;94.90
20773;DHT22;10546;50.674;4.616;2022-08-21T17:03:56;25.30;94.80
20773;DHT22;10546;50.674;4.616;2022-08-21T17:06:22;25.10;95.20
20773;DHT22;10546;50.674;4.616;2022-08-21T17:08:48;25.10;95.50
20773;DHT22;10546;50.674;4.616;2022-08-21T17:11:22;25.10;95.70
20773;DHT22;10546;50.674;4.616;2022-08-21T17:13:50;25.10;95.70
20773;DHT22;10546;50.674;4.616;2022-08-21T17:16:16;25.10;95.90
20773;DHT22;10546;50.674;4.616;2022-08-21T17:18:41;25.20;95.80
20773;DHT22;10546;50.674;4.616;2022-08-21T17:21:07;25.10;95.90
20773;DHT22;10546;50.674;4.616;2022-08-21T17:23:33;25.10;96.50
20773;DHT22;10546;50.674;4.616;2022-08-21T17:25:59;25.00;96.40
20773;DHT22;10546;50.674;4.616;2022-08-21T17:28:29;25.00;96.80
20773;DHT22;10546;50.674;4.616;2022-08-21T17:30:57;24.90;96.30
20773;DHT22;10546;50.674;4.616;2022-08-21T17:33:24;25.00;96.50
20773;DHT22;10546;50.674;4.616;2022-08-21T17:35:51;25.10;96.10
20773;DHT22;10546;50.674;4.616;2022-08-21T17:38:18;25.00;96.10
20773;DHT22;10546;50.674;4.616;2022-08-21T17:40:46;25.10;96.40
20773;DHT22;10546;50.674;4.616;2022-08-21T17:43:12;25.00;96.60
20773;DHT22;10546;50.674;4.616;2022-08-21T17:45:40;24.90;96.90
20773;DHT22;10546;50.674;4.616;2022-08-21T17:48:06;24.80;97.20
20773;DHT22;10546;50.674;4.616;2022-08-21T17:50:33;24.60;97.90
20773;DHT22;10546;50.674;4.616;2022-08-21T17:52:58;24.60;98.30
20773;DHT22;10546;50.674;4.616;2022-08-21T17:55:24;24.60;98.50
20773;DHT22;10546;50.674;4.616;2022-08-21T17:57:52;24.50;98.80
20773;DHT22;10546;50.674;4.616;2022-08-21T18:00:20;24.30;99.10
20773;DHT22;10546;50.674;4.616;2022-08-21T18:02:55;24.10;99.40
20773;DHT22;10546;50.674;4.616;2022-08-21T18:05:23;24.10;99.30
20773;DHT22;10546;50.674;4.616;2022-08-21T18:07:48;24.10;99.70
20773;DHT22;10546;50.674;4.616;2022-08-21T18:10:14;24.10;99.90
20773;DHT22;10546;50.674;4.616;2022-08-21T18:12:41;24.10;99.60
20773;DHT22;10546;50.674;4.616;2022-08-21T18:15:11;24.10;99.90
20773;DHT22;10546;50.674;4.616;2022-08-21T18:17:39;24.10;99.90
20773;DHT22;10546;50.674;4.616;2022-08-21T18:20:06;24.00;99.90
20773;DHT22;10546;50.674;4.616;2022-08-21T18:22:32;23.90;99.90
20773;DHT22;10546;50.674;4.616;2022-08-21T18:24:58;23.90;99.90
20773;DHT22;10546;50.674;4.616;2022-08-21T18:27:24;23.80;99.90
20773;DHT22;10546;50.674;4.616;2022-08-21T18:29:55;23.90;99.90
20773;DHT22;10546;50.674;4.616;2022-08-21T18:32:23;23.80;99.90
20773;DHT22;10546;50.674;4.616;2022-08-21T18:34:51;23.70;99.90
20773;DHT22;10546;50.674;4.616;2022-08-21T18:37:16;23.60;99.90
20773;DHT22;10546;50.674;4.616;2022-08-21T18:39:42;23.50;99.90
20773;DHT22;10546;50.674;4.616;2022-08-21T18:42:11;23.50;99.90
20773;DHT22;10546;50.674;4.616;2022-08-21T18:44:40;23.20;99.90
20773;DHT22;10546;50.674;4.616;2022-08-21T18:47:23;23.10;99.90
20773;DHT22;10546;50.674;4.616;2022-08-21T18:49:50;23.10;99.90
20773;DHT22;10546;50.674;4.616;2022-08-21T18:52:16;23.10;99.90
20773;DHT22;10546;50.674;4.616;2022-08-21T18:54:42;23.10;99.90
20773;DHT22;10546;50.674;4.616;2022-08-21T18:57:08;23.20;99.90
20773;DHT22;10546;50.674;4.616;2022-08-21T18:59:34;23.30;99.90
20773;DHT22;10546;50.674;4.616;2022-08-21T19:02:00;23.20;99.90
20773;DHT22;10546;50.674;4.616;2022-08-21T19:04:26;23.20;99.90
20773;DHT22;10546;50.674;4.616;2022-08-21T19:06:52;23.00;99.90
20773;DHT22;10546;50.674;4.616;2022-08-21T19:09:18;23.00;99.90
20773;DHT22;10546;50.674;4.616;2022-08-21T19:11:44;23.00;99.90
20773;DHT22;10546;50.674;4.616;2022-08-21T19:14:12;22.80;99.90
20773;DHT22;10546;50.674;4.616;2022-08-21T19:16:40;22.80;99.90
20773;DHT22;10546;50.674;4.616;2022-08-21T19:19:06;22.90;99.90
20773;DHT22;10546;50.674;4.616;2022-08-21T19:21:32;22.80;99.90
20773;DHT22;10546;50.674;4.616;2022-08-21T19:23:59;22.60;99.90
20773;DHT22;10546;50.674;4.616;2022-08-21T19:26:26;22.40;99.90
20773;DHT22;10546;50.674;4.616;2022-08-21T19:28:57;22.30;99.90
20773;DHT22;10546;50.674;4.616;2022-08-21T19:31:27;22.40;99.90
20773;DHT22;10546;50.674;4.616;2022-08-21T19:33:59;22.40;99.90
20773;DHT22;10546;50.674;4.616;2022-08-21T19:36:25;22.40;99.90
20773;DHT22;10546;50.674;4.616;2022-08-21T19:38:51;22.40;99.90
20773;DHT22;10546;50.674;4.616;2022-08-21T19:41:17;22.40;99.90
20773;DHT22;10546;50.674;4.616;2022-08-21T19:43:50;22.40;99.90
20773;DHT22;10546;50.674;4.616;2022-08-21T19:46:30;22.30;99.90
20773;DHT22;10546;50.674;4.616;2022-08-21T19:48:57;22.30;99.90
20773;DHT22;10546;50.674;4.616;2022-08-21T19:51:23;22.30;99.90
20773;DHT22;10546;50.674;4.616;2022-08-21T19:53:50;22.30;99.90
20773;DHT22;10546;50.674;4.616;2022-08-21T19:56:21;22.20;99.90
20773;DHT22;10546;50.674;4.616;2022-08-21T19:58:48;22.20;99.90
20773;DHT22;10546;50.674;4.616;2022-08-21T20:01:17;22.40;99.90
20773;DHT22;10546;50.674;4.616;2022-08-21T20:03:44;22.40;99.90
20773;DHT22;10546;50.674;4.616;2022-08-21T20:06:11;22.40;99.90
20773;DHT22;10546;50.674;4.616;2022-08-21T20:08:36;22.30;99.90
20773;DHT22;10546;50.674;4.616;2022-08-21T20:11:02;22.30;99.90
20773;DHT22;10546;50.674;4.616;2022-08-21T20:13:30;22.30;99.90
20773;DHT22;10546;50.674;4.616;2022-08-21T20:15:59;22.20;99.90
20773;DHT22;10546;50.674;4.616;2022-08-21T20:18:25;22.20;99.90
20773;DHT22;10546;50.674;4.616;2022-08-21T20:20:51;22.00;99.90
20773;DHT22;10546;50.674;4.616;2022-08-21T20:23:17;21.80;99.90
20773;DHT22;10546;50.674;4.616;2022-08-21T20:25:44;21.70;99.90
20773;DHT22;10546;50.674;4.616;2022-08-21T20:28:11;21.70;99.90
20773;DHT22;10546;50.674;4.616;2022-08-21T20:30:37;21.60;99.90
20773;DHT22;10546;50.674;4.616;2022-08-21T20:33:03;21.60;99.90
20773;DHT22;10546;50.674;4.616;2022-08-21T20:35:28;21.60;99.90
20773;DHT22;10546;50.674;4.616;2022-08-21T20:37:55;21.60;99.90
20773;DHT22;10546;50.674;4.616;2022-08-21T20:40:22;21.60;99.90
20773;DHT22;10546;50.674;4.616;2022-08-21T20:42:49;21.60;99.90
20773;DHT22;10546;50.674;4.616;2022-08-21T20:45:20;21.70;99.90
20773;DHT22;10546;50.674;4.616;2022-08-21T20:47:47;21.40;99.90
20773;DHT22;10546;50.674;4.616;2022-08-21T20:50:17;21.30;99.90
20773;DHT22;10546;50.674;4.616;2022-08-21T20:52:47;21.30;99.90
20773;DHT22;10546;50.674;4.616;2022-08-21T20:55:15;21.20;99.90
